sensor_id;sensor_type;location;lat;lon;timestamp;P1;durP1;ratioP1;P2;durP2;ratioP2
38717;SDS011;24468;52.128;9.278;2022-08-03T00:01:41;5.97;;;3.63;;
38717;SDS011;24468;52.128;9.278;2022-08-03T00:04:08;4.00;;;3.42;;
38717;SDS011;24468;52.128;9.278;2022-08-03T00:06:35;5.65;;;3.35;;
38717;SDS011;24468;52.128;9.278;2022-08-03T00:09:01;3.63;;;3.33;;
38717;SDS011;24468;52.128;9.278;2022-08-03T00:11:29;3.65;;;3.10;;
38717;SDS011;24468;52.128;9.278;2022-08-03T00:13:54;4.03;;;3.58;;
38717;SDS011;24468;52.128;9.278;2022-08-03T00:16:20;4.28;;;3.70;;
38717;SDS011;24468;52.128;9.278;2022-08-03T00:18:45;3.33;;;3.10;;
38717;SDS011;24468;52.128;9.278;2022-08-03T00:21:11;4.28;;;3.83;;
38717;SDS011;24468;52.128;9.278;2022-08-03T00:23:36;6.35;;;4.07;;
38717;SDS011;24468;52.128;9.278;2022-08-03T00:26:02;4.65;;;3.88;;
38717;SDS011;24468;52.128;9.278;2022-08-03T00:28:28;4.65;;;4.13;;
38717;SDS011;24468;52.128;9.278;2022-08-03T00:30:53;4.95;;;4.40;;
38717;SDS011;24468;52.128;9.278;2022-08-03T00:33:22;4.72;;;4.32;;
38717;SDS011;24468;52.128;9.278;2022-08-03T00:35:47;4.57;;;3.85;;
38717;SDS011;24468;52.128;9.278;2022-08-03T00:38:13;4.40;;;4.00;;
38717;SDS011;24468;52.128;9.278;2022-08-03T00:40:39;4.70;;;4.20;;
38717;SDS011;24468;52.128;9.278;2022-08-03T00:43:05;6.10;;;3.85;;
38717;SDS011;24468;52.128;9.278;2022-08-03T00:45:34;4.03;;;3.70;;
38717;SDS011;24468;52.128;9.278;2022-08-03T00:50:32;4.10;;;3.70;;
38717;SDS011;24468;52.128;9.278;2022-08-03T00:53:01;5.32;;;3.70;;
38717;SDS011;24468;52.128;9.278;2022-08-03T00:55:29;4.55;;;3.65;;
38717;SDS011;24468;52.128;9.278;2022-08-03T00:57:55;4.13;;;3.28;;
38717;SDS011;24468;52.128;9.278;2022-08-03T01:00:22;3.72;;;3.35;;
38717;SDS011;24468;52.128;9.278;2022-08-03T01:02:50;4.20;;;3.80;;
38717;SDS011;24468;52.128;9.278;2022-08-03T01:05:16;4.30;;;3.90;;
38717;SDS011;24468;52.128;9.278;2022-08-03T01:10:52;5.68;;;3.65;;
38717;SDS011;24468;52.128;9.278;2022-08-03T01:13:53;5.28;;;4.07;;
38717;SDS011;24468;52.128;9.278;2022-08-03T01:16:35;6.13;;;4.13;;
38717;SDS011;24468;52.128;9.278;2022-08-03T01:22:22;5.80;;;3.47;;
38717;SDS011;24468;52.128;9.278;2022-08-03T01:28:15;4.20;;;3.78;;
38717;SDS011;24468;52.128;9.278;2022-08-03T01:30:48;3.80;;;3.50;;
38717;SDS011;24468;52.128;9.278;2022-08-03T01:33:25;5.78;;;4.05;;
38717;SDS011;24468;52.128;9.278;2022-08-03T01:35:59;4.13;;;3.63;;
38717;SDS011;24468;52.128;9.278;2022-08-03T01:38:31;8.70;;;4.03;;
38717;SDS011;24468;52.128;9.278;2022-08-03T01:41:05;5.50;;;4.10;;
38717;SDS011;24468;52.128;9.278;2022-08-03T01:43:34;5.30;;;3.90;;
38717;SDS011;24468;52.128;9.278;2022-08-03T01:46:03;4.68;;;4.18;;
38717;SDS011;24468;52.128;9.278;2022-08-03T01:48:31;4.20;;;3.80;;
38717;SDS011;24468;52.128;9.278;2022-08-03T01:50:58;5.18;;;4.18;;
38717;SDS011;24468;52.128;9.278;2022-08-03T01:53:24;4.55;;;4.05;;
38717;SDS011;24468;52.128;9.278;2022-08-03T01:55:53;5.20;;;4.13;;
38717;SDS011;24468;52.128;9.278;2022-08-03T01:58:21;5.15;;;3.95;;
38717;SDS011;24468;52.128;9.278;2022-08-03T02:00:49;4.93;;;3.53;;
38717;SDS011;24468;52.128;9.278;2022-08-03T02:03:16;5.63;;;4.28;;
38717;SDS011;24468;52.128;9.278;2022-08-03T02:05:45;3.63;;;3.33;;
38717;SDS011;24468;52.128;9.278;2022-08-03T02:08:13;4.45;;;4.05;;
38717;SDS011;24468;52.128;9.278;2022-08-03T02:10:41;4.03;;;3.25;;
38717;SDS011;24468;52.128;9.278;2022-08-03T02:13:10;4.30;;;3.65;;
38717;SDS011;24468;52.128;9.278;2022-08-03T02:15:39;5.47;;;3.83;;
38717;SDS011;24468;52.128;9.278;2022-08-03T02:18:06;4.90;;;4.15;;
38717;SDS011;24468;52.128;9.278;2022-08-03T02:20:34;4.30;;;3.90;;
38717;SDS011;24468;52.128;9.278;2022-08-03T02:23:03;5.60;;;3.67;;
38717;SDS011;24468;52.128;9.278;2022-08-03T02:25:30;4.93;;;4.05;;
38717;SDS011;24468;52.128;9.278;2022-08-03T02:28:00;5.28;;;3.78;;
38717;SDS011;24468;52.128;9.278;2022-08-03T02:30:36;6.03;;;4.50;;
38717;SDS011;24468;52.128;9.278;2022-08-03T02:33:07;4.57;;;4.18;;
38717;SDS011;24468;52.128;9.278;2022-08-03T02:35:38;4.80;;;4.07;;
38717;SDS011;24468;52.128;9.278;2022-08-03T02:38:06;6.63;;;4.20;;
38717;SDS011;24468;52.128;9.278;2022-08-03T02:40:34;5.75;;;5.13;;
38717;SDS011;24468;52.128;9.278;2022-08-03T02:43:02;5.82;;;4.72;;
38717;SDS011;24468;52.128;9.278;2022-08-03T02:45:34;6.03;;;4.80;;
38717;SDS011;24468;52.128;9.278;2022-08-03T02:48:05;6.82;;;4.55;;
38717;SDS011;24468;52.128;9.278;2022-08-03T02:50:33;5.50;;;4.47;;
38717;SDS011;24468;52.128;9.278;2022-08-03T02:52:59;6.45;;;5.05;;
38717;SDS011;24468;52.128;9.278;2022-08-03T02:55:27;5.03;;;4.15;;
38717;SDS011;24468;52.128;9.278;2022-08-03T02:57:53;6.93;;;4.63;;
38717;SDS011;24468;52.128;9.278;2022-08-03T03:00:21;5.95;;;4.93;;
38717;SDS011;24468;52.128;9.278;2022-08-03T03:02:47;5.25;;;4.75;;
38717;SDS011;24468;52.128;9.278;2022-08-03T03:05:14;6.00;;;5.07;;
38717;SDS011;24468;52.128;9.278;2022-08-03T03:07:40;5.43;;;4.47;;
38717;SDS011;24468;52.128;9.278;2022-08-03T03:10:07;6.18;;;4.82;;
38717;SDS011;24468;52.128;9.278;2022-08-03T03:12:35;4.63;;;4.22;;
38717;SDS011;24468;52.128;9.278;2022-08-03T03:15:03;6.25;;;5.13;;
38717;SDS011;24468;52.128;9.278;2022-08-03T03:17:30;6.68;;;5.22;;
38717;SDS011;24468;52.128;9.278;2022-08-03T03:19:59;5.57;;;4.90;;
38717;SDS011;24468;52.128;9.278;2022-08-03T03:22:26;5.07;;;4.60;;
38717;SDS011;24468;52.128;9.278;2022-08-03T03:24:51;5.93;;;4.60;;
38717;SDS011;24468;52.128;9.278;2022-08-03T03:27:18;8.95;;;5.47;;
38717;SDS011;24468;52.128;9.278;2022-08-03T03:29:45;6.05;;;4.55;;
38717;SDS011;24468;52.128;9.278;2022-08-03T03:32:11;6.88;;;4.75;;
38717;SDS011;24468;52.128;9.278;2022-08-03T03:34:37;11.40;;;5.38;;
38717;SDS011;24468;52.128;9.278;2022-08-03T03:37:03;5.07;;;4.50;;
38717;SDS011;24468;52.128;9.278;2022-08-03T03:39:29;5.45;;;4.63;;
38717;SDS011;24468;52.128;9.278;2022-08-03T03:41:55;6.00;;;4.00;;
38717;SDS011;24468;52.128;9.278;2022-08-03T03:44:24;4.95;;;4.30;;
38717;SDS011;24468;52.128;9.278;2022-08-03T03:46:56;6.43;;;4.43;;
38717;SDS011;24468;52.128;9.278;2022-08-03T03:49:22;7.38;;;3.70;;
38717;SDS011;24468;52.128;9.278;2022-08-03T03:51:50;5.00;;;4.50;;
38717;SDS011;24468;52.128;9.278;2022-08-03T03:54:17;7.40;;;4.43;;
38717;SDS011;24468;52.128;9.278;2022-08-03T03:56:43;5.15;;;3.78;;
38717;SDS011;24468;52.128;9.278;2022-08-03T03:59:09;6.93;;;5.28;;
38717;SDS011;24468;52.128;9.278;2022-08-03T04:01:34;8.10;;;4.20;;
38717;SDS011;24468;52.128;9.278;2022-08-03T04:04:00;6.35;;;4.70;;
38717;SDS011;24468;52.128;9.278;2022-08-03T04:06:45;5.32;;;4.80;;
38717;SDS011;24468;52.128;9.278;2022-08-03T04:09:30;6.18;;;4.55;;
38717;SDS011;24468;52.128;9.278;2022-08-03T04:12:17;4.35;;;3.92;;
38717;SDS011;24468;52.128;9.278;2022-08-03T04:14:46;4.88;;;4.47;;
38717;SDS011;24468;52.128;9.278;2022-08-03T04:17:13;5.70;;;3.92;;
38717;SDS011;24468;52.128;9.278;2022-08-03T04:19:48;6.32;;;4.28;;
38717;SDS011;24468;52.128;9.278;2022-08-03T04:22:17;5.10;;;3.95;;
38717;SDS011;24468;52.128;9.278;2022-08-03T04:24:52;6.57;;;4.00;;
38717;SDS011;24468;52.128;9.278;2022-08-03T04:27:26;5.07;;;4.20;;
38717;SDS011;24468;52.128;9.278;2022-08-03T04:29:57;5.68;;;4.63;;
38717;SDS011;24468;52.128;9.278;2022-08-03T04:32:26;5.65;;;4.55;;
38717;SDS011;24468;52.128;9.278;2022-08-03T04:34:53;5.50;;;4.60;;
38717;SDS011;24468;52.128;9.278;2022-08-03T04:37:34;4.72;;;4.18;;
38717;SDS011;24468;52.128;9.278;2022-08-03T04:40:09;5.95;;;4.35;;
38717;SDS011;24468;52.128;9.278;2022-08-03T04:42:45;7.72;;;4.72;;
38717;SDS011;24468;52.128;9.278;2022-08-03T04:45:13;5.65;;;4.78;;
38717;SDS011;24468;52.128;9.278;2022-08-03T04:47:40;4.30;;;3.90;;
38717;SDS011;24468;52.128;9.278;2022-08-03T04:50:06;16.75;;;5.30;;
38717;SDS011;24468;52.128;9.278;2022-08-03T04:52:33;14.05;;;5.70;;
38717;SDS011;24468;52.128;9.278;2022-08-03T04:55:00;9.55;;;4.65;;
38717;SDS011;24468;52.128;9.278;2022-08-03T04:57:25;9.18;;;4.82;;
38717;SDS011;24468;52.128;9.278;2022-08-03T04:59:51;8.50;;;4.65;;
38717;SDS011;24468;52.128;9.278;2022-08-03T05:02:21;5.65;;;4.55;;
38717;SDS011;24468;52.128;9.278;2022-08-03T05:04:47;6.80;;;4.25;;
38717;SDS011;24468;52.128;9.278;2022-08-03T05:07:14;5.97;;;4.18;;
38717;SDS011;24468;52.128;9.278;2022-08-03T05:09:41;5.82;;;4.13;;
38717;SDS011;24468;52.128;9.278;2022-08-03T05:12:07;7.13;;;5.13;;
38717;SDS011;24468;52.128;9.278;2022-08-03T05:14:33;6.50;;;3.88;;
38717;SDS011;24468;52.128;9.278;2022-08-03T05:17:01;6.40;;;4.47;;
38717;SDS011;24468;52.128;9.278;2022-08-03T05:19:27;5.80;;;4.22;;
38717;SDS011;24468;52.128;9.278;2022-08-03T05:21:53;8.25;;;4.43;;
38717;SDS011;24468;52.128;9.278;2022-08-03T05:24:18;4.20;;;3.80;;
38717;SDS011;24468;52.128;9.278;2022-08-03T05:26:44;5.15;;;4.07;;
38717;SDS011;24468;52.128;9.278;2022-08-03T05:29:09;5.68;;;4.00;;
38717;SDS011;24468;52.128;9.278;2022-08-03T05:31:35;5.10;;;3.65;;
38717;SDS011;24468;52.128;9.278;2022-08-03T05:34:00;4.07;;;3.67;;
38717;SDS011;24468;52.128;9.278;2022-08-03T05:36:26;4.75;;;4.35;;
38717;SDS011;24468;52.128;9.278;2022-08-03T05:38:52;6.20;;;4.05;;
38717;SDS011;24468;52.128;9.278;2022-08-03T05:41:17;5.40;;;3.40;;
38717;SDS011;24468;52.128;9.278;2022-08-03T05:43:43;8.90;;;4.00;;
38717;SDS011;24468;52.128;9.278;2022-08-03T05:46:09;5.63;;;3.35;;
38717;SDS011;24468;52.128;9.278;2022-08-03T05:48:35;4.43;;;3.88;;
38717;SDS011;24468;52.128;9.278;2022-08-03T05:51:01;3.80;;;3.50;;
38717;SDS011;24468;52.128;9.278;2022-08-03T05:53:26;5.88;;;3.25;;
38717;SDS011;24468;52.128;9.278;2022-08-03T05:55:53;5.80;;;4.60;;
38717;SDS011;24468;52.128;9.278;2022-08-03T05:58:20;5.75;;;4.00;;
38717;SDS011;24468;52.128;9.278;2022-08-03T06:00:45;6.25;;;3.55;;
38717;SDS011;24468;52.128;9.278;2022-08-03T06:03:11;5.38;;;4.43;;
38717;SDS011;24468;52.128;9.278;2022-08-03T06:05:36;4.70;;;3.72;;
38717;SDS011;24468;52.128;9.278;2022-08-03T06:08:02;6.18;;;4.10;;
38717;SDS011;24468;52.128;9.278;2022-08-03T06:10:29;4.47;;;3.65;;
38717;SDS011;24468;52.128;9.278;2022-08-03T06:12:55;5.22;;;3.55;;
38717;SDS011;24468;52.128;9.278;2022-08-03T06:15:20;6.35;;;3.90;;
38717;SDS011;24468;52.128;9.278;2022-08-03T06:17:46;6.13;;;4.18;;
38717;SDS011;24468;52.128;9.278;2022-08-03T06:20:17;3.92;;;3.50;;
38717;SDS011;24468;52.128;9.278;2022-08-03T06:22:45;5.10;;;3.65;;
38717;SDS011;24468;52.128;9.278;2022-08-03T06:25:11;7.95;;;3.28;;
38717;SDS011;24468;52.128;9.278;2022-08-03T06:27:37;4.32;;;3.90;;
38717;SDS011;24468;52.128;9.278;2022-08-03T06:30:06;4.90;;;3.50;;
38717;SDS011;24468;52.128;9.278;2022-08-03T06:32:38;7.90;;;3.67;;
38717;SDS011;24468;52.128;9.278;2022-08-03T06:35:05;4.88;;;3.45;;
38717;SDS011;24468;52.128;9.278;2022-08-03T06:37:42;7.70;;;4.05;;
38717;SDS011;24468;52.128;9.278;2022-08-03T06:40:10;4.07;;;2.80;;
38717;SDS011;24468;52.128;9.278;2022-08-03T06:42:37;3.50;;;3.22;;
38717;SDS011;24468;52.128;9.278;2022-08-03T06:45:03;4.47;;;3.08;;
38717;SDS011;24468;52.128;9.278;2022-08-03T06:47:30;4.05;;;3.50;;
38717;SDS011;24468;52.128;9.278;2022-08-03T06:49:56;4.07;;;3.38;;
38717;SDS011;24468;52.128;9.278;2022-08-03T06:52:21;7.65;;;3.15;;
38717;SDS011;24468;52.128;9.278;2022-08-03T06:54:47;7.78;;;3.38;;
38717;SDS011;24468;52.128;9.278;2022-08-03T06:57:12;4.55;;;2.88;;
38717;SDS011;24468;52.128;9.278;2022-08-03T06:59:40;7.75;;;3.72;;
38717;SDS011;24468;52.128;9.278;2022-08-03T07:02:08;7.80;;;2.88;;
38717;SDS011;24468;52.128;9.278;2022-08-03T07:04:34;3.80;;;3.30;;
38717;SDS011;24468;52.128;9.278;2022-08-03T07:07:00;9.15;;;3.33;;
38717;SDS011;24468;52.128;9.278;2022-08-03T07:09:25;4.82;;;3.20;;
38717;SDS011;24468;52.128;9.278;2022-08-03T07:11:52;2.90;;;2.60;;
38717;SDS011;24468;52.128;9.278;2022-08-03T07:14:18;3.80;;;2.90;;
38717;SDS011;24468;52.128;9.278;2022-08-03T07:16:43;6.32;;;2.67;;
38717;SDS011;24468;52.128;9.278;2022-08-03T07:19:09;6.40;;;3.30;;
38717;SDS011;24468;52.128;9.278;2022-08-03T07:21:35;4.93;;;3.50;;
38717;SDS011;24468;52.128;9.278;2022-08-03T07:24:00;6.22;;;2.95;;
38717;SDS011;24468;52.128;9.278;2022-08-03T07:26:26;3.08;;;2.67;;
38717;SDS011;24468;52.128;9.278;2022-08-03T07:28:51;2.92;;;2.45;;
38717;SDS011;24468;52.128;9.278;2022-08-03T07:31:17;4.15;;;2.78;;
38717;SDS011;24468;52.128;9.278;2022-08-03T07:33:42;4.55;;;2.67;;
38717;SDS011;24468;52.128;9.278;2022-08-03T07:36:08;3.33;;;2.80;;
38717;SDS011;24468;52.128;9.278;2022-08-03T07:38:34;6.53;;;3.25;;
38717;SDS011;24468;52.128;9.278;2022-08-03T07:41:00;3.65;;;3.22;;
38717;SDS011;24468;52.128;9.278;2022-08-03T07:43:26;4.50;;;2.65;;
38717;SDS011;24468;52.128;9.278;2022-08-03T07:45:52;3.13;;;2.70;;
38717;SDS011;24468;52.128;9.278;2022-08-03T07:48:17;6.38;;;3.05;;
38717;SDS011;24468;52.128;9.278;2022-08-03T07:50:43;5.63;;;3.35;;
38717;SDS011;24468;52.128;9.278;2022-08-03T07:53:09;4.68;;;2.70;;
38717;SDS011;24468;52.128;9.278;2022-08-03T07:55:34;2.42;;;2.22;;
38717;SDS011;24468;52.128;9.278;2022-08-03T07:58:06;2.67;;;2.33;;
38717;SDS011;24468;52.128;9.278;2022-08-03T08:00:36;5.82;;;2.55;;
38717;SDS011;24468;52.128;9.278;2022-08-03T08:03:03;5.30;;;2.35;;
38717;SDS011;24468;52.128;9.278;2022-08-03T08:05:29;3.35;;;2.40;;
38717;SDS011;24468;52.128;9.278;2022-08-03T08:07:55;2.30;;;1.92;;
38717;SDS011;24468;52.128;9.278;2022-08-03T08:10:21;3.00;;;2.47;;
38717;SDS011;24468;52.128;9.278;2022-08-03T08:12:46;3.13;;;2.33;;
38717;SDS011;24468;52.128;9.278;2022-08-03T08:15:12;3.60;;;2.45;;
38717;SDS011;24468;52.128;9.278;2022-08-03T08:17:42;3.25;;;2.03;;
38717;SDS011;24468;52.128;9.278;2022-08-03T08:20:10;4.35;;;2.20;;
38717;SDS011;24468;52.128;9.278;2022-08-03T08:22:40;5.72;;;2.35;;
38717;SDS011;24468;52.128;9.278;2022-08-03T08:25:06;2.85;;;1.92;;
38717;SDS011;24468;52.128;9.278;2022-08-03T08:27:32;5.18;;;2.08;;
38717;SDS011;24468;52.128;9.278;2022-08-03T08:29:58;6.78;;;2.10;;
38717;SDS011;24468;52.128;9.278;2022-08-03T08:32:23;1.83;;;1.42;;
38717;SDS011;24468;52.128;9.278;2022-08-03T08:34:48;8.00;;;2.30;;
38717;SDS011;24468;52.128;9.278;2022-08-03T08:37:14;2.78;;;1.80;;
38717;SDS011;24468;52.128;9.278;2022-08-03T08:39:40;2.50;;;1.40;;
38717;SDS011;24468;52.128;9.278;2022-08-03T08:42:05;4.38;;;1.70;;
38717;SDS011;24468;52.128;9.278;2022-08-03T08:44:31;8.25;;;2.83;;
38717;SDS011;24468;52.128;9.278;2022-08-03T08:46:57;2.13;;;1.70;;
38717;SDS011;24468;52.128;9.278;2022-08-03T08:49:27;4.82;;;1.67;;
38717;SDS011;24468;52.128;9.278;2022-08-03T08:51:53;5.53;;;2.15;;
38717;SDS011;24468;52.128;9.278;2022-08-03T08:54:20;1.85;;;1.70;;
38717;SDS011;24468;52.128;9.278;2022-08-03T08:56:48;2.90;;;1.85;;
38717;SDS011;24468;52.128;9.278;2022-08-03T08:59:16;4.70;;;1.50;;
38717;SDS011;24468;52.128;9.278;2022-08-03T09:01:42;3.83;;;1.80;;
38717;SDS011;24468;52.128;9.278;2022-08-03T09:04:07;4.93;;;2.67;;
38717;SDS011;24468;52.128;9.278;2022-08-03T09:06:33;2.75;;;1.75;;
38717;SDS011;24468;52.128;9.278;2022-08-03T09:08:59;6.03;;;1.80;;
38717;SDS011;24468;52.128;9.278;2022-08-03T09:11:25;3.88;;;2.05;;
38717;SDS011;24468;52.128;9.278;2022-08-03T09:13:50;5.03;;;1.90;;
38717;SDS011;24468;52.128;9.278;2022-08-03T09:16:17;5.55;;;1.70;;
38717;SDS011;24468;52.128;9.278;2022-08-03T09:18:46;5.22;;;1.75;;
38717;SDS011;24468;52.128;9.278;2022-08-03T09:21:19;3.00;;;1.70;;
38717;SDS011;24468;52.128;9.278;2022-08-03T09:23:49;3.05;;;1.52;;
38717;SDS011;24468;52.128;9.278;2022-08-03T09:26:27;4.05;;;2.13;;
38717;SDS011;24468;52.128;9.278;2022-08-03T09:29:02;3.85;;;2.17;;
38717;SDS011;24468;52.128;9.278;2022-08-03T09:31:36;3.50;;;1.90;;
38717;SDS011;24468;52.128;9.278;2022-08-03T09:34:05;4.90;;;1.92;;
38717;SDS011;24468;52.128;9.278;2022-08-03T09:36:42;2.63;;;1.45;;
38717;SDS011;24468;52.128;9.278;2022-08-03T09:39:14;6.17;;;1.70;;
38717;SDS011;24468;52.128;9.278;2022-08-03T09:41:48;3.35;;;1.67;;
38717;SDS011;24468;52.128;9.278;2022-08-03T09:47:02;2.85;;;1.42;;
38717;SDS011;24468;52.128;9.278;2022-08-03T09:49:30;5.60;;;2.00;;
38717;SDS011;24468;52.128;9.278;2022-08-03T09:51:56;2.33;;;1.33;;
38717;SDS011;24468;52.128;9.278;2022-08-03T09:54:30;2.28;;;1.52;;
38717;SDS011;24468;52.128;9.278;2022-08-03T09:56:56;6.07;;;1.75;;
38717;SDS011;24468;52.128;9.278;2022-08-03T09:59:23;2.78;;;1.63;;
38717;SDS011;24468;52.128;9.278;2022-08-03T10:01:51;5.30;;;1.50;;
38717;SDS011;24468;52.128;9.278;2022-08-03T10:04:18;8.88;;;2.20;;
38717;SDS011;24468;52.128;9.278;2022-08-03T10:06:44;4.80;;;1.73;;
38717;SDS011;24468;52.128;9.278;2022-08-03T10:09:25;2.72;;;1.75;;
38717;SDS011;24468;52.128;9.278;2022-08-03T10:11:50;2.88;;;1.75;;
38717;SDS011;24468;52.128;9.278;2022-08-03T10:14:16;4.07;;;2.00;;
38717;SDS011;24468;52.128;9.278;2022-08-03T10:16:47;3.53;;;1.52;;
38717;SDS011;24468;52.128;9.278;2022-08-03T10:19:13;3.15;;;1.90;;
38717;SDS011;24468;52.128;9.278;2022-08-03T10:21:40;4.97;;;1.77;;
38717;SDS011;24468;52.128;9.278;2022-08-03T10:24:13;8.85;;;2.00;;
38717;SDS011;24468;52.128;9.278;2022-08-03T10:26:44;3.88;;;2.08;;
38717;SDS011;24468;52.128;9.278;2022-08-03T10:29:14;7.13;;;2.05;;
38717;SDS011;24468;52.128;9.278;2022-08-03T10:31:46;5.43;;;1.75;;
38717;SDS011;24468;52.128;9.278;2022-08-03T10:34:16;4.50;;;1.85;;
38717;SDS011;24468;52.128;9.278;2022-08-03T10:36:46;3.78;;;1.70;;
38717;SDS011;24468;52.128;9.278;2022-08-03T10:39:17;2.23;;;1.70;;
38717;SDS011;24468;52.128;9.278;2022-08-03T10:41:45;5.45;;;2.20;;
38717;SDS011;24468;52.128;9.278;2022-08-03T10:44:16;4.13;;;1.67;;
38717;SDS011;24468;52.128;9.278;2022-08-03T10:46:44;2.17;;;1.55;;
38717;SDS011;24468;52.128;9.278;2022-08-03T10:49:16;1.58;;;1.48;;
38717;SDS011;24468;52.128;9.278;2022-08-03T10:51:43;3.47;;;1.80;;
38717;SDS011;24468;52.128;9.278;2022-08-03T10:57:01;4.07;;;1.65;;
38717;SDS011;24468;52.128;9.278;2022-08-03T11:02:12;2.13;;;1.40;;
38717;SDS011;24468;52.128;9.278;2022-08-03T11:04:39;2.38;;;1.73;;
38717;SDS011;24468;52.128;9.278;2022-08-03T11:09:41;4.22;;;1.67;;
38717;SDS011;24468;52.128;9.278;2022-08-03T11:14:56;5.65;;;1.73;;
38717;SDS011;24468;52.128;9.278;2022-08-03T11:17:24;4.90;;;1.50;;
38717;SDS011;24468;52.128;9.278;2022-08-03T11:19:50;3.78;;;1.40;;
38717;SDS011;24468;52.128;9.278;2022-08-03T11:22:18;4.95;;;1.30;;
38717;SDS011;24468;52.128;9.278;2022-08-03T11:27:15;1.80;;;1.50;;
38717;SDS011;24468;52.128;9.278;2022-08-03T11:35:18;7.70;;;1.65;;
38717;SDS011;24468;52.128;9.278;2022-08-03T11:43:04;1.88;;;1.27;;
38717;SDS011;24468;52.128;9.278;2022-08-03T11:46:03;4.07;;;1.58;;
38717;SDS011;24468;52.128;9.278;2022-08-03T11:48:46;3.45;;;1.48;;
38717;SDS011;24468;52.128;9.278;2022-08-03T11:51:18;4.18;;;1.27;;
38717;SDS011;24468;52.128;9.278;2022-08-03T11:54:00;3.40;;;1.02;;
38717;SDS011;24468;52.128;9.278;2022-08-03T11:56:35;3.03;;;1.80;;
38717;SDS011;24468;52.128;9.278;2022-08-03T11:59:12;3.53;;;1.58;;
38717;SDS011;24468;52.128;9.278;2022-08-03T12:01:38;2.08;;;1.48;;
38717;SDS011;24468;52.128;9.278;2022-08-03T12:04:04;1.98;;;1.77;;
38717;SDS011;24468;52.128;9.278;2022-08-03T12:06:30;2.60;;;1.52;;
38717;SDS011;24468;52.128;9.278;2022-08-03T12:09:19;1.88;;;1.20;;
38717;SDS011;24468;52.128;9.278;2022-08-03T12:11:48;3.90;;;1.30;;
38717;SDS011;24468;52.128;9.278;2022-08-03T12:14:16;2.00;;;1.37;;
38717;SDS011;24468;52.128;9.278;2022-08-03T12:16:46;4.68;;;1.58;;
38717;SDS011;24468;52.128;9.278;2022-08-03T12:19:12;3.33;;;1.38;;
38717;SDS011;24468;52.128;9.278;2022-08-03T12:21:46;8.27;;;1.55;;
38717;SDS011;24468;52.128;9.278;2022-08-03T12:24:12;3.03;;;1.83;;
38717;SDS011;24468;52.128;9.278;2022-08-03T12:26:45;1.55;;;0.90;;
38717;SDS011;24468;52.128;9.278;2022-08-03T12:29:17;4.90;;;1.13;;
38717;SDS011;24468;52.128;9.278;2022-08-03T12:31:48;3.00;;;1.73;;
38717;SDS011;24468;52.128;9.278;2022-08-03T12:34:14;2.10;;;1.83;;
38717;SDS011;24468;52.128;9.278;2022-08-03T12:36:50;5.25;;;1.85;;
38717;SDS011;24468;52.128;9.278;2022-08-03T12:39:21;3.22;;;1.70;;
38717;SDS011;24468;52.128;9.278;2022-08-03T12:41:51;2.05;;;1.80;;
38717;SDS011;24468;52.128;9.278;2022-08-03T12:44:27;1.92;;;1.27;;
38717;SDS011;24468;52.128;9.278;2022-08-03T12:46:58;3.05;;;1.60;;
38717;SDS011;24468;52.128;9.278;2022-08-03T12:49:26;1.60;;;1.30;;
38717;SDS011;24468;52.128;9.278;2022-08-03T12:54:19;3.17;;;1.80;;
38717;SDS011;24468;52.128;9.278;2022-08-03T12:57:03;1.85;;;1.30;;
38717;SDS011;24468;52.128;9.278;2022-08-03T12:59:35;1.90;;;1.42;;
38717;SDS011;24468;52.128;9.278;2022-08-03T13:04:46;2.97;;;1.20;;
38717;SDS011;24468;52.128;9.278;2022-08-03T13:07:14;3.83;;;1.17;;
38717;SDS011;24468;52.128;9.278;2022-08-03T13:09:45;1.73;;;1.30;;
38717;SDS011;24468;52.128;9.278;2022-08-03T13:12:18;1.77;;;1.40;;
38717;SDS011;24468;52.128;9.278;2022-08-03T13:14:49;2.42;;;1.17;;
38717;SDS011;24468;52.128;9.278;2022-08-03T13:17:18;2.28;;;1.52;;
38717;SDS011;24468;52.128;9.278;2022-08-03T13:19:44;2.92;;;1.45;;
38717;SDS011;24468;52.128;9.278;2022-08-03T13:24:47;2.17;;;1.60;;
38717;SDS011;24468;52.128;9.278;2022-08-03T13:27:15;3.53;;;1.30;;
38717;SDS011;24468;52.128;9.278;2022-08-03T13:29:41;1.67;;;1.10;;
38717;SDS011;24468;52.128;9.278;2022-08-03T13:32:08;1.48;;;1.27;;
38717;SDS011;24468;52.128;9.278;2022-08-03T13:34:34;1.50;;;1.27;;
38717;SDS011;24468;52.128;9.278;2022-08-03T13:36:59;2.53;;;1.50;;
38717;SDS011;24468;52.128;9.278;2022-08-03T13:39:25;3.83;;;1.20;;
38717;SDS011;24468;52.128;9.278;2022-08-03T13:41:51;2.83;;;1.30;;
38717;SDS011;24468;52.128;9.278;2022-08-03T13:44:17;4.72;;;1.20;;
38717;SDS011;24468;52.128;9.278;2022-08-03T13:46:43;1.58;;;1.15;;
38717;SDS011;24468;52.128;9.278;2022-08-03T13:49:10;5.20;;;1.17;;
38717;SDS011;24468;52.128;9.278;2022-08-03T13:51:36;2.65;;;1.55;;
38717;SDS011;24468;52.128;9.278;2022-08-03T13:54:01;3.53;;;1.40;;
38717;SDS011;24468;52.128;9.278;2022-08-03T13:56:28;4.68;;;1.40;;
38717;SDS011;24468;52.128;9.278;2022-08-03T13:58:54;4.05;;;1.40;;
38717;SDS011;24468;52.128;9.278;2022-08-03T14:01:20;1.48;;;1.38;;
38717;SDS011;24468;52.128;9.278;2022-08-03T14:03:46;2.03;;;1.48;;
38717;SDS011;24468;52.128;9.278;2022-08-03T14:06:16;5.85;;;1.63;;
38717;SDS011;24468;52.128;9.278;2022-08-03T14:08:42;2.75;;;1.08;;
38717;SDS011;24468;52.128;9.278;2022-08-03T14:11:08;2.75;;;1.30;;
38717;SDS011;24468;52.128;9.278;2022-08-03T14:13:35;1.80;;;1.30;;
38717;SDS011;24468;52.128;9.278;2022-08-03T14:16:01;3.80;;;1.42;;
38717;SDS011;24468;52.128;9.278;2022-08-03T14:18:26;2.42;;;1.20;;
38717;SDS011;24468;52.128;9.278;2022-08-03T14:20:52;1.45;;;1.35;;
38717;SDS011;24468;52.128;9.278;2022-08-03T14:23:17;3.53;;;1.05;;
38717;SDS011;24468;52.128;9.278;2022-08-03T14:25:43;1.90;;;1.38;;
38717;SDS011;24468;52.128;9.278;2022-08-03T14:28:09;3.45;;;1.17;;
38717;SDS011;24468;52.128;9.278;2022-08-03T14:30:34;4.60;;;1.60;;
38717;SDS011;24468;52.128;9.278;2022-08-03T14:33:00;2.03;;;1.70;;
38717;SDS011;24468;52.128;9.278;2022-08-03T14:35:26;2.17;;;1.40;;
38717;SDS011;24468;52.128;9.278;2022-08-03T14:37:51;3.08;;;1.30;;
38717;SDS011;24468;52.128;9.278;2022-08-03T14:40:17;1.75;;;1.52;;
38717;SDS011;24468;52.128;9.278;2022-08-03T14:42:44;2.95;;;1.23;;
38717;SDS011;24468;52.128;9.278;2022-08-03T14:45:09;5.28;;;1.45;;
38717;SDS011;24468;52.128;9.278;2022-08-03T14:47:36;1.45;;;1.20;;
38717;SDS011;24468;52.128;9.278;2022-08-03T14:50:02;3.67;;;1.33;;
38717;SDS011;24468;52.128;9.278;2022-08-03T14:52:29;4.90;;;1.65;;
38717;SDS011;24468;52.128;9.278;2022-08-03T14:54:56;2.65;;;1.40;;
38717;SDS011;24468;52.128;9.278;2022-08-03T14:57:22;6.13;;;1.52;;
38717;SDS011;24468;52.128;9.278;2022-08-03T14:59:48;2.35;;;1.30;;
38717;SDS011;24468;52.128;9.278;2022-08-03T15:02:14;2.33;;;1.52;;
38717;SDS011;24468;52.128;9.278;2022-08-03T15:04:39;4.18;;;1.35;;
38717;SDS011;24468;52.128;9.278;2022-08-03T15:07:05;2.58;;;1.60;;
38717;SDS011;24468;52.128;9.278;2022-08-03T15:09:31;4.57;;;1.50;;
38717;SDS011;24468;52.128;9.278;2022-08-03T15:11:56;3.42;;;1.67;;
38717;SDS011;24468;52.128;9.278;2022-08-03T15:14:22;2.40;;;1.10;;
38717;SDS011;24468;52.128;9.278;2022-08-03T15:16:47;4.15;;;1.20;;
38717;SDS011;24468;52.128;9.278;2022-08-03T15:19:13;4.22;;;1.40;;
38717;SDS011;24468;52.128;9.278;2022-08-03T15:21:38;1.90;;;1.38;;
38717;SDS011;24468;52.128;9.278;2022-08-03T15:24:04;1.42;;;0.95;;
38717;SDS011;24468;52.128;9.278;2022-08-03T15:26:30;2.30;;;1.48;;
38717;SDS011;24468;52.128;9.278;2022-08-03T15:28:56;3.53;;;1.45;;
38717;SDS011;24468;52.128;9.278;2022-08-03T15:31:22;4.47;;;1.50;;
38717;SDS011;24468;52.128;9.278;2022-08-03T15:33:49;7.32;;;1.75;;
38717;SDS011;24468;52.128;9.278;2022-08-03T15:36:16;1.98;;;1.20;;
38717;SDS011;24468;52.128;9.278;2022-08-03T15:38:43;4.68;;;1.63;;
38717;SDS011;24468;52.128;9.278;2022-08-03T15:41:09;2.55;;;1.23;;